createdAt,value
2022-12-06T00:00:53.678Z,2.32
2022-12-06T00:01:53.809Z,2.32
2022-12-06T00:02:53.700Z,2.32
2022-12-06T00:03:53.685Z,2.30
2022-12-06T00:04:53.637Z,2.30
2022-12-06T00:05:53.628Z,2.33
2022-12-06T00:06:53.632Z,2.33
2022-12-06T00:07:53.666Z,2.32
2022-12-06T00:08:53.576Z,2.33
2022-12-06T00:09:53.597Z,2.36
2022-12-06T00:10:53.574Z,2.33
2022-12-06T00:11:53.548Z,2.33
2022-12-06T00:12:53.557Z,2.36
2022-12-06T00:13:53.551Z,2.33
2022-12-06T00:14:53.515Z,2.37
2022-12-06T00:15:53.521Z,2.36
2022-12-06T00:16:53.542Z,2.36
2022-12-06T00:17:53.484Z,2.37
2022-12-06T00:18:53.469Z,2.38
2022-12-06T00:19:53.478Z,2.37
2022-12-06T00:20:53.449Z,2.38
2022-12-06T00:21:53.471Z,2.38
2022-12-06T00:22:53.422Z,2.38
2022-12-06T00:23:53.411Z,2.40
2022-12-06T00:24:53.421Z,2.38
2022-12-06T00:25:53.437Z,2.40
2022-12-06T00:26:53.371Z,2.38
2022-12-06T00:27:53.365Z,2.36
2022-12-06T00:28:53.321Z,2.38
2022-12-06T00:29:53.347Z,2.36
2022-12-06T00:30:53.289Z,2.33
2022-12-06T00:31:53.343Z,2.32
2022-12-06T00:32:53.269Z,2.32
2022-12-06T00:33:53.295Z,2.32
2022-12-06T00:34:53.260Z,2.32
2022-12-06T00:35:53.240Z,2.36
2022-12-06T00:36:53.229Z,2.36
2022-12-06T00:37:53.236Z,2.37
2022-12-06T00:38:53.205Z,2.36
2022-12-06T00:39:53.235Z,2.36
2022-12-06T00:40:53.169Z,2.38
2022-12-06T00:41:53.199Z,2.38
2022-12-06T00:42:53.173Z,2.40
2022-12-06T00:43:53.166Z,2.40
2022-12-06T00:44:53.147Z,2.40
2022-12-06T00:45:53.201Z,2.41
2022-12-06T00:46:53.155Z,2.41
2022-12-06T00:47:53.103Z,2.41
2022-12-06T00:48:53.092Z,2.43
2022-12-06T00:49:53.046Z,2.44
2022-12-06T00:50:53.090Z,2.45
2022-12-06T00:51:53.060Z,2.44
2022-12-06T00:52:53.043Z,2.45
2022-12-06T00:53:53.022Z,2.44
2022-12-06T00:54:53.031Z,2.44
2022-12-06T00:55:52.991Z,2.41
2022-12-06T00:56:52.966Z,2.41
2022-12-06T00:57:52.965Z,2.40
2022-12-06T00:58:52.970Z,2.38
2022-12-06T00:59:52.940Z,2.38
2022-12-06T01:00:52.975Z,2.32
2022-12-06T01:01:52.952Z,2.32
2022-12-06T01:02:52.994Z,2.29
2022-12-06T01:03:52.904Z,2.30
2022-12-06T01:04:52.873Z,2.30
2022-12-06T01:05:52.870Z,2.30
2022-12-06T01:06:52.901Z,2.30
2022-12-06T01:07:52.851Z,2.27
2022-12-06T01:08:52.869Z,2.29
2022-12-06T01:09:52.820Z,2.30
2022-12-06T01:10:52.848Z,2.30
2022-12-06T01:11:52.782Z,2.30
2022-12-06T01:12:53.069Z,2.30
2022-12-06T01:13:52.778Z,2.32
2022-12-06T01:14:52.746Z,2.33
2022-12-06T01:15:52.740Z,2.36
2022-12-06T01:16:52.829Z,2.36
2022-12-06T01:17:52.680Z,2.38
2022-12-06T01:18:52.735Z,2.37
2022-12-06T01:19:52.660Z,2.40
2022-12-06T01:20:52.715Z,2.38
2022-12-06T01:21:52.657Z,2.40
2022-12-06T01:22:52.665Z,2.40
2022-12-06T01:23:52.632Z,2.43
2022-12-06T01:24:52.645Z,2.43
2022-12-06T01:25:52.616Z,2.37
2022-12-06T01:26:52.614Z,2.33
2022-12-06T01:27:52.557Z,2.32
2022-12-06T01:28:52.566Z,2.32
2022-12-06T01:29:52.562Z,2.33
2022-12-06T01:30:52.623Z,2.36
2022-12-06T01:31:52.565Z,2.36
2022-12-06T01:32:52.542Z,2.36
2022-12-06T01:33:52.487Z,2.36
2022-12-06T01:34:52.521Z,2.36
2022-12-06T01:35:52.501Z,2.37
2022-12-06T01:36:52.475Z,2.37
2022-12-06T01:37:52.491Z,2.38
2022-12-06T01:38:52.451Z,2.37
2022-12-06T01:39:52.447Z,2.36
2022-12-06T01:40:52.422Z,2.36
2022-12-06T01:41:52.400Z,2.36
2022-12-06T01:42:52.390Z,2.36
2022-12-06T01:43:52.352Z,2.33
2022-12-06T01:44:52.362Z,2.33
2022-12-06T01:45:52.390Z,2.36
2022-12-06T01:46:52.343Z,2.38
2022-12-06T01:47:52.322Z,2.40
2022-12-06T01:48:52.327Z,2.40
2022-12-06T01:49:52.308Z,2.44
2022-12-06T01:50:52.337Z,2.43
2022-12-06T01:51:52.268Z,2.43
2022-12-06T01:52:52.263Z,2.41
2022-12-06T01:53:52.223Z,2.40
2022-12-06T01:54:52.256Z,2.40
2022-12-06T01:55:52.200Z,2.41
2022-12-06T01:56:52.239Z,2.41
2022-12-06T01:57:52.178Z,2.43
2022-12-06T01:58:52.211Z,2.44
2022-12-06T01:59:52.177Z,2.45
2022-12-06T02:00:52.140Z,2.44
2022-12-06T02:01:52.303Z,2.45
2022-12-06T02:02:52.178Z,2.44
2022-12-06T02:03:52.148Z,2.47
2022-12-06T02:04:52.125Z,2.44
2022-12-06T02:05:52.087Z,2.41
2022-12-06T02:06:52.081Z,2.44
2022-12-06T02:07:52.089Z,2.43
2022-12-06T02:08:52.039Z,2.44
2022-12-06T02:09:52.016Z,2.45
2022-12-06T02:10:52.046Z,2.45
2022-12-06T02:11:52.023Z,2.44
2022-12-06T02:12:52.021Z,2.44
2022-12-06T02:13:51.985Z,2.47
2022-12-06T02:14:51.991Z,2.45
2022-12-06T02:15:51.940Z,2.47
2022-12-06T02:16:52.189Z,2.48
2022-12-06T02:17:51.940Z,2.47
2022-12-06T02:18:51.915Z,2.48
2022-12-06T02:19:51.904Z,2.47
2022-12-06T02:20:51.895Z,2.44
2022-12-06T02:21:51.856Z,2.43
2022-12-06T02:22:51.892Z,2.44
2022-12-06T02:23:51.860Z,2.44
2022-12-06T02:24:51.870Z,2.44
2022-12-06T02:25:51.826Z,2.44
2022-12-06T02:26:51.832Z,2.45
2022-12-06T02:27:51.827Z,2.47
2022-12-06T02:28:51.782Z,2.45
2022-12-06T02:29:51.752Z,2.45
2022-12-06T02:30:51.799Z,2.45
2022-12-06T02:31:51.731Z,2.48
2022-12-06T02:32:54.836Z,2.45
2022-12-06T02:33:51.726Z,2.44
2022-12-06T02:34:51.733Z,2.48
2022-12-06T02:35:51.716Z,2.48
2022-12-06T02:36:51.707Z,2.50
2022-12-06T02:37:51.689Z,2.50
2022-12-06T02:38:51.649Z,2.51
2022-12-06T02:39:51.637Z,2.53
2022-12-06T02:40:51.659Z,2.51
2022-12-06T02:41:51.626Z,2.53
2022-12-06T02:42:51.649Z,2.53
2022-12-06T02:43:51.595Z,2.55
2022-12-06T02:44:51.580Z,2.55
2022-12-06T02:45:51.608Z,2.56
2022-12-06T02:46:51.558Z,2.55
2022-12-06T02:47:51.535Z,2.56
2022-12-06T02:48:51.562Z,2.56
2022-12-06T02:49:51.532Z,2.53
2022-12-06T02:50:51.530Z,2.55
2022-12-06T02:51:51.469Z,2.55
2022-12-06T02:52:51.479Z,2.55
2022-12-06T02:53:51.480Z,2.56
2022-12-06T02:54:51.501Z,2.56
2022-12-06T02:55:51.464Z,2.56
2022-12-06T02:56:51.452Z,2.55
2022-12-06T02:57:51.413Z,2.55
2022-12-06T02:58:51.419Z,2.55
2022-12-06T02:59:51.366Z,2.56
2022-12-06T03:00:51.412Z,2.58
2022-12-06T03:01:51.449Z,2.58
2022-12-06T03:02:51.407Z,2.61
2022-12-06T03:03:51.321Z,2.61
2022-12-06T03:04:51.361Z,2.62
2022-12-06T03:05:51.299Z,2.61
2022-12-06T03:06:51.322Z,2.62
2022-12-06T03:07:51.333Z,2.63
2022-12-06T03:08:51.320Z,2.62
2022-12-06T03:09:51.261Z,2.63
2022-12-06T03:10:51.242Z,2.63
2022-12-06T03:11:51.232Z,2.63
2022-12-06T03:12:51.233Z,2.63
2022-12-06T03:13:51.204Z,2.63
2022-12-06T03:14:51.200Z,2.63
2022-12-06T03:15:51.259Z,2.65
2022-12-06T03:16:51.162Z,2.65
2022-12-06T03:17:51.158Z,2.65
2022-12-06T03:18:51.197Z,2.65
2022-12-06T03:19:51.139Z,2.65
2022-12-06T03:20:51.139Z,2.65
2022-12-06T03:21:51.083Z,2.66
2022-12-06T03:22:51.118Z,2.66
2022-12-06T03:23:51.128Z,2.68
2022-12-06T03:24:51.088Z,2.65
2022-12-06T03:25:51.045Z,2.66
2022-12-06T03:26:51.062Z,2.68
2022-12-06T03:27:51.045Z,2.65
2022-12-06T03:28:51.048Z,2.65
2022-12-06T03:29:51.014Z,2.66
2022-12-06T03:30:51.045Z,2.66
2022-12-06T03:31:50.957Z,2.66
2022-12-06T03:32:50.980Z,2.68
2022-12-06T03:33:50.926Z,2.69
2022-12-06T03:34:50.995Z,2.69
2022-12-06T03:35:50.918Z,2.69
2022-12-06T03:36:50.909Z,2.73
2022-12-06T03:37:50.916Z,2.73
2022-12-06T03:38:50.876Z,2.71
2022-12-06T03:39:50.856Z,2.73
2022-12-06T03:40:50.883Z,2.73
2022-12-06T03:41:50.823Z,2.71
2022-12-06T03:42:50.886Z,2.68
2022-12-06T03:43:50.831Z,2.68
2022-12-06T03:44:50.829Z,2.66
2022-12-06T03:45:50.851Z,2.68
2022-12-06T03:46:50.892Z,2.68
2022-12-06T03:47:50.811Z,2.71
2022-12-06T03:48:50.782Z,2.73
2022-12-06T03:49:50.770Z,2.71
2022-12-06T03:50:55.446Z,2.73
2022-12-06T03:51:51.754Z,2.71
2022-12-06T03:52:50.729Z,2.74
2022-12-06T03:53:50.672Z,2.73
2022-12-06T03:54:50.700Z,2.73
2022-12-06T03:55:50.682Z,2.74
2022-12-06T03:56:50.687Z,2.74
2022-12-06T03:57:50.647Z,2.74
2022-12-06T03:58:50.623Z,2.74
2022-12-06T03:59:50.623Z,2.77
2022-12-06T04:00:50.624Z,2.77
2022-12-06T04:01:50.784Z,2.77
2022-12-06T04:02:50.596Z,2.77
2022-12-06T04:03:50.613Z,2.79
2022-12-06T04:04:50.597Z,2.79
2022-12-06T04:05:50.548Z,2.77
2022-12-06T04:06:50.521Z,2.77
2022-12-06T04:07:50.650Z,2.80
2022-12-06T04:08:50.502Z,2.79
2022-12-06T04:09:50.495Z,2.79
2022-12-06T04:10:50.469Z,2.80
2022-12-06T04:11:50.481Z,2.80
2022-12-06T04:12:50.470Z,2.83
2022-12-06T04:13:50.441Z,2.81
2022-12-06T04:14:50.446Z,2.81
2022-12-06T04:15:50.471Z,2.81
2022-12-06T04:16:50.387Z,2.83
2022-12-06T04:17:50.436Z,2.83
2022-12-06T04:18:50.366Z,2.83
2022-12-06T04:19:52.226Z,2.83
2022-12-06T04:20:50.391Z,2.83
2022-12-06T04:21:50.344Z,2.83
2022-12-06T04:22:50.321Z,2.84
2022-12-06T04:23:50.321Z,2.84
2022-12-06T04:24:50.322Z,2.86
2022-12-06T04:25:50.254Z,2.84
2022-12-06T04:26:50.309Z,2.84
2022-12-06T04:27:50.260Z,2.83
2022-12-06T04:28:50.302Z,2.84
2022-12-06T04:29:50.215Z,2.83
2022-12-06T04:30:50.203Z,2.86
2022-12-06T04:31:50.297Z,2.86
2022-12-06T04:32:50.214Z,2.87
2022-12-06T04:33:50.169Z,2.87
2022-12-06T04:34:50.181Z,2.87
2022-12-06T04:35:50.154Z,2.87
2022-12-06T04:36:50.129Z,2.87
2022-12-06T04:37:50.127Z,2.87
2022-12-06T04:38:50.103Z,2.87
2022-12-06T04:39:50.118Z,2.86
2022-12-06T04:40:50.100Z,2.89
2022-12-06T04:41:50.072Z,2.89
2022-12-06T04:42:50.106Z,2.90
2022-12-06T04:43:50.065Z,2.89
2022-12-06T04:44:50.029Z,2.89
2022-12-06T04:45:50.010Z,2.89
2022-12-06T04:46:50.079Z,2.90
2022-12-06T04:47:49.998Z,2.94
2022-12-06T04:48:50.038Z,2.92
2022-12-06T04:49:49.985Z,2.92
2022-12-06T04:50:49.984Z,2.92
2022-12-06T04:51:49.967Z,2.90
2022-12-06T04:52:49.948Z,2.89
2022-12-06T04:53:49.938Z,2.87
2022-12-06T04:54:49.946Z,2.87
2022-12-06T04:55:49.877Z,2.89
2022-12-06T04:56:49.887Z,2.89
2022-12-06T04:57:49.883Z,2.87
2022-12-06T04:58:49.905Z,2.87
2022-12-06T04:59:49.836Z,2.89
2022-12-06T05:00:49.880Z,2.90
2022-12-06T05:01:49.836Z,2.89
2022-12-06T05:02:49.802Z,2.92
2022-12-06T05:03:49.862Z,2.92
2022-12-06T05:04:49.793Z,2.92
2022-12-06T05:05:49.791Z,2.92
2022-12-06T05:06:49.735Z,2.90
2022-12-06T05:07:49.861Z,2.92
2022-12-06T05:08:49.730Z,2.92
2022-12-06T05:09:49.768Z,2.94
2022-12-06T05:10:49.711Z,2.94
2022-12-06T05:11:49.713Z,2.95
2022-12-06T05:12:49.680Z,2.94
2022-12-06T05:13:49.652Z,2.95
2022-12-06T05:14:49.651Z,2.95
2022-12-06T05:15:50.662Z,2.97
2022-12-06T05:16:49.731Z,2.98
2022-12-06T05:17:49.602Z,2.98
2022-12-06T05:18:49.628Z,2.97
2022-12-06T05:19:49.611Z,2.99
2022-12-06T05:20:49.574Z,2.99
2022-12-06T05:21:49.600Z,2.98
2022-12-06T05:22:49.530Z,2.98
2022-12-06T05:23:49.520Z,2.98
2022-12-06T05:24:49.528Z,2.98
2022-12-06T05:25:49.546Z,2.99
2022-12-06T05:26:49.481Z,2.97
2022-12-06T05:27:49.501Z,2.99
2022-12-06T05:28:49.480Z,2.99
2022-12-06T05:29:49.485Z,3.01
2022-12-06T05:30:49.439Z,3.02
2022-12-06T05:31:49.533Z,3.02
2022-12-06T05:32:55.396Z,3.01
2022-12-06T05:33:50.421Z,3.02
2022-12-06T05:34:49.412Z,3.04
2022-12-06T05:35:49.386Z,3.02
2022-12-06T05:36:49.357Z,3.02
2022-12-06T05:37:49.374Z,3.01
2022-12-06T05:38:51.557Z,3.02
2022-12-06T05:39:49.360Z,3.01
2022-12-06T05:40:49.325Z,3.01
2022-12-06T05:41:49.339Z,3.01
2022-12-06T05:42:49.536Z,3.01
2022-12-06T05:43:49.322Z,3.02
2022-12-06T05:44:49.255Z,3.02
2022-12-06T05:45:49.293Z,3.04
2022-12-06T05:46:49.271Z,3.02
2022-12-06T05:47:49.235Z,3.05
2022-12-06T05:48:49.185Z,3.05
2022-12-06T05:49:49.252Z,3.04
2022-12-06T05:50:49.163Z,3.02
2022-12-06T05:51:49.173Z,3.02
2022-12-06T05:52:49.169Z,3.02
2022-12-06T05:53:49.173Z,3.01
2022-12-06T05:54:49.152Z,2.99
2022-12-06T05:55:49.140Z,3.01
2022-12-06T05:56:49.083Z,3.01
2022-12-06T05:57:49.094Z,3.01
2022-12-06T05:58:49.073Z,3.01
2022-12-06T05:59:49.094Z,3.04
2022-12-06T06:00:49.045Z,3.04
2022-12-06T06:01:49.134Z,3.02
2022-12-06T06:02:49.212Z,3.02
2022-12-06T06:03:49.099Z,3.04
2022-12-06T06:04:49.011Z,3.04
2022-12-06T06:05:48.990Z,3.05
2022-12-06T06:06:48.963Z,3.05
2022-12-06T06:07:49.032Z,3.08
2022-12-06T06:08:48.955Z,3.08
2022-12-06T06:09:48.939Z,3.08
2022-12-06T06:10:48.946Z,3.08
2022-12-06T06:11:48.923Z,3.08
2022-12-06T06:12:48.885Z,3.08
2022-12-06T06:13:48.880Z,3.10
2022-12-06T06:14:48.894Z,3.08
2022-12-06T06:15:48.883Z,3.08
2022-12-06T06:16:48.923Z,3.12
2022-12-06T06:17:48.860Z,3.10
2022-12-06T06:18:48.828Z,3.10
2022-12-06T06:19:51.496Z,3.12
2022-12-06T06:20:48.840Z,3.12
2022-12-06T06:21:48.811Z,3.13
2022-12-06T06:22:48.780Z,3.12
2022-12-06T06:23:48.781Z,3.13
2022-12-06T06:24:48.793Z,3.13
2022-12-06T06:25:48.779Z,3.13
2022-12-06T06:26:48.705Z,3.15
2022-12-06T06:27:48.731Z,3.13
2022-12-06T06:28:48.685Z,3.15
2022-12-06T06:29:49.000Z,3.15
2022-12-06T06:30:48.682Z,3.15
2022-12-06T06:31:50.016Z,3.16
2022-12-06T06:32:48.663Z,3.16
2022-12-06T06:33:48.671Z,3.15
2022-12-06T06:34:48.660Z,3.15
2022-12-06T06:35:48.639Z,3.13
2022-12-06T06:36:48.573Z,3.13
2022-12-06T06:37:48.582Z,3.15
2022-12-06T06:38:48.559Z,3.15
2022-12-06T06:39:48.579Z,3.16
2022-12-06T06:40:48.588Z,3.17
2022-12-06T06:41:48.549Z,3.17
2022-12-06T06:42:48.526Z,3.20
2022-12-06T06:43:48.540Z,3.22
2022-12-06T06:44:48.491Z,3.22
2022-12-06T06:45:48.498Z,3.22
2022-12-06T06:46:48.447Z,3.22
2022-12-06T06:47:48.478Z,3.20
2022-12-06T06:48:48.448Z,3.20
2022-12-06T06:49:48.477Z,3.20
2022-12-06T06:50:52.592Z,3.17
2022-12-06T06:51:49.399Z,3.17
2022-12-06T06:52:48.546Z,3.16
2022-12-06T06:53:48.414Z,3.16
2022-12-06T06:54:48.861Z,3.17
2022-12-06T06:55:52.925Z,3.17
2022-12-06T06:56:48.368Z,3.16
2022-12-06T06:57:48.367Z,3.17
2022-12-06T06:58:48.368Z,3.17
2022-12-06T06:59:48.292Z,3.20
2022-12-06T07:00:48.314Z,3.20
2022-12-06T07:01:48.376Z,3.20
2022-12-06T07:02:48.346Z,3.23
2022-12-06T07:03:48.273Z,3.23
2022-12-06T07:04:48.241Z,3.22
2022-12-06T07:05:48.272Z,3.22
2022-12-06T07:06:48.237Z,3.22
2022-12-06T07:07:48.280Z,3.23
2022-12-06T07:08:48.210Z,3.23
2022-12-06T07:09:48.216Z,3.23
2022-12-06T07:10:48.164Z,3.25
2022-12-06T07:11:48.170Z,3.23
2022-12-06T07:12:48.142Z,3.25
2022-12-06T07:13:52.519Z,3.26
2022-12-06T07:14:48.102Z,3.28
2022-12-06T07:15:48.113Z,3.26
2022-12-06T07:16:48.133Z,3.28
2022-12-06T07:17:48.109Z,3.28
2022-12-06T07:18:48.080Z,3.28
2022-12-06T07:19:48.103Z,3.25
2022-12-06T07:20:48.060Z,3.25
2022-12-06T07:21:48.037Z,3.23
2022-12-06T07:22:48.042Z,3.23
2022-12-06T07:23:48.050Z,3.25
2022-12-06T07:24:52.404Z,3.25
2022-12-06T07:25:48.009Z,3.25
2022-12-06T07:26:47.951Z,3.26
2022-12-06T07:27:47.958Z,3.28
2022-12-06T07:28:47.937Z,3.28
2022-12-06T07:29:47.938Z,3.28
2022-12-06T07:30:47.973Z,3.30
2022-12-06T07:31:47.919Z,3.31
2022-12-06T07:32:47.869Z,3.30
2022-12-06T07:33:47.908Z,3.31
2022-12-06T07:34:47.836Z,3.31
2022-12-06T07:36:11.597Z,3.33
2022-12-06T07:36:48.886Z,3.31
2022-12-06T07:37:47.838Z,3.33
2022-12-06T07:38:47.788Z,3.34
2022-12-06T07:39:47.818Z,3.33
2022-12-06T07:41:03.870Z,3.34
2022-12-06T07:41:48.928Z,3.34
2022-12-06T07:42:47.766Z,3.35
2022-12-06T07:43:47.766Z,3.35
2022-12-06T07:44:47.717Z,3.37
2022-12-06T07:45:47.781Z,3.37
2022-12-06T07:46:47.696Z,3.37
2022-12-06T07:47:47.713Z,3.39
2022-12-06T07:48:47.673Z,3.39
2022-12-06T07:49:47.680Z,3.39
2022-12-06T07:50:47.681Z,3.37
2022-12-06T07:51:47.671Z,3.35
2022-12-06T07:52:47.661Z,3.39
2022-12-06T07:53:47.602Z,3.39
2022-12-06T07:54:47.611Z,3.39
2022-12-06T07:55:47.596Z,3.39
2022-12-06T07:56:47.565Z,3.39
2022-12-06T07:57:47.555Z,3.41
2022-12-06T07:58:47.530Z,3.42
2022-12-06T07:59:47.543Z,3.41
2022-12-06T08:00:47.568Z,3.41
2022-12-06T08:01:47.547Z,3.44
2022-12-06T08:02:47.508Z,3.44
2022-12-06T08:03:57.452Z,3.42
2022-12-06T08:04:47.566Z,3.44
2022-12-06T08:05:47.487Z,3.44
2022-12-06T08:06:47.512Z,3.44
2022-12-06T08:07:47.472Z,3.46
2022-12-06T08:08:47.470Z,3.46
2022-12-06T08:09:47.515Z,3.49
2022-12-06T08:10:47.380Z,3.50
2022-12-06T08:11:47.437Z,3.52
2022-12-06T08:12:47.351Z,3.53
2022-12-06T08:13:47.538Z,3.52
2022-12-06T08:14:47.317Z,3.53
2022-12-06T08:15:47.354Z,3.53
2022-12-06T08:16:47.339Z,3.56
2022-12-06T08:17:47.344Z,3.54
2022-12-06T08:18:47.324Z,3.56
2022-12-06T08:19:47.266Z,3.57
2022-12-06T08:20:47.283Z,3.56
2022-12-06T08:21:47.283Z,3.59
2022-12-06T08:22:47.251Z,3.60
2022-12-06T08:23:47.264Z,3.60
2022-12-06T08:24:47.232Z,3.60
2022-12-06T08:25:55.496Z,3.62
2022-12-06T08:26:47.277Z,3.63
2022-12-06T08:27:47.172Z,3.64
2022-12-06T08:28:47.145Z,3.67
2022-12-06T08:29:47.175Z,3.68
2022-12-06T08:33:03.388Z,3.70
2022-12-06T08:34:06.579Z,3.71
2022-12-06T08:35:03.287Z,3.72
2022-12-06T08:36:03.312Z,3.74
2022-12-06T08:37:03.808Z,3.74
2022-12-06T08:38:03.233Z,3.74
2022-12-06T08:39:03.360Z,3.77
2022-12-06T08:40:03.428Z,3.75
2022-12-06T08:41:03.193Z,3.78
2022-12-06T08:42:03.183Z,3.77
2022-12-06T08:43:03.140Z,3.78
2022-12-06T08:44:03.168Z,3.78
2022-12-06T08:45:03.115Z,3.81
2022-12-06T08:46:03.191Z,3.81
2022-12-06T08:47:03.139Z,3.81
2022-12-06T08:48:03.078Z,3.84
2022-12-06T08:49:03.090Z,3.82
2022-12-06T08:50:03.367Z,3.84
2022-12-06T08:51:03.097Z,3.86
2022-12-06T08:52:15.956Z,3.86
2022-12-06T08:53:03.225Z,3.89
2022-12-06T08:56:02.040Z,3.90
2022-12-06T08:56:56.849Z,3.90
2022-12-06T08:57:55.854Z,3.93
2022-12-06T08:58:55.856Z,3.93
2022-12-06T08:59:55.846Z,3.93
2022-12-06T09:00:55.778Z,3.96
2022-12-06T09:01:55.868Z,3.95
2022-12-06T09:02:55.774Z,3.96
2022-12-06T09:03:55.731Z,3.98
2022-12-06T09:04:55.758Z,4.00
2022-12-06T09:05:55.723Z,4.00
2022-12-06T09:06:55.707Z,4.02
2022-12-06T09:07:55.758Z,4.06
2022-12-06T09:08:55.684Z,4.06
2022-12-06T09:09:55.673Z,4.08
2022-12-06T09:10:55.676Z,4.07
2022-12-06T09:11:55.649Z,4.10
2022-12-06T09:12:55.616Z,4.10
2022-12-06T09:13:55.622Z,4.11
2022-12-06T09:14:55.594Z,4.10
2022-12-06T09:15:55.625Z,4.11
2022-12-06T09:16:55.608Z,4.11
2022-12-06T09:17:55.543Z,4.13
2022-12-06T09:18:55.574Z,4.11
2022-12-06T09:19:57.611Z,4.14
2022-12-06T09:20:56.536Z,4.16
2022-12-06T09:21:55.512Z,4.17
2022-12-06T09:22:55.504Z,4.18
2022-12-06T09:23:55.494Z,4.25
2022-12-06T09:24:55.497Z,4.26
2022-12-06T09:25:55.530Z,4.26
2022-12-06T09:26:55.470Z,4.29
2022-12-06T09:27:55.439Z,4.31
2022-12-06T09:28:55.419Z,4.34
2022-12-06T09:29:55.436Z,4.35
2022-12-06T09:30:55.420Z,4.34
2022-12-06T09:31:55.457Z,4.35
2022-12-06T09:32:55.516Z,4.36
2022-12-06T09:33:55.331Z,4.35
2022-12-06T09:34:55.390Z,4.36
2022-12-06T09:35:55.371Z,4.38
2022-12-06T09:36:55.558Z,4.39
2022-12-06T09:37:55.337Z,4.39
2022-12-06T09:38:55.291Z,4.42
2022-12-06T09:39:55.277Z,4.43
2022-12-06T09:40:55.289Z,4.44
2022-12-06T09:41:55.279Z,4.44
2022-12-06T09:42:55.377Z,4.46
2022-12-06T09:43:55.461Z,4.47
2022-12-06T09:44:55.259Z,4.49
2022-12-06T09:45:55.260Z,4.50
2022-12-06T09:46:55.382Z,4.51
2022-12-06T09:47:55.158Z,4.56
2022-12-06T09:48:55.186Z,4.57
2022-12-06T09:49:55.157Z,4.57
2022-12-06T09:50:55.164Z,4.59
2022-12-06T09:51:55.127Z,4.57
2022-12-06T09:52:55.156Z,4.62
2022-12-06T09:53:55.090Z,4.62
2022-12-06T09:55:00.376Z,4.61
2022-12-06T09:55:55.056Z,4.62
2022-12-06T09:56:55.168Z,4.64
2022-12-06T09:57:55.063Z,4.62
2022-12-06T09:58:55.034Z,4.65
2022-12-06T09:59:55.006Z,4.65
2022-12-06T10:00:55.031Z,4.65
2022-12-06T10:01:55.025Z,4.64
2022-12-06T10:02:55.055Z,4.65
2022-12-06T10:03:54.956Z,4.65
2022-12-06T10:04:55.009Z,4.65
2022-12-06T10:05:54.951Z,4.65
2022-12-06T10:06:54.934Z,4.67
2022-12-06T10:07:55.079Z,4.69
2022-12-06T10:08:55.033Z,4.71
2022-12-06T10:09:54.873Z,4.74
2022-12-06T10:10:54.882Z,4.75
2022-12-06T10:11:55.119Z,4.74
2022-12-06T10:12:55.042Z,4.77
2022-12-06T10:13:55.858Z,4.75
2022-12-06T10:14:54.845Z,4.74
2022-12-06T10:15:54.835Z,4.75
2022-12-06T10:16:54.858Z,4.72
2022-12-06T10:17:54.796Z,4.75
2022-12-06T10:18:54.810Z,4.72
2022-12-06T10:19:54.799Z,4.72
2022-12-06T10:20:54.761Z,4.74
2022-12-06T10:21:54.797Z,4.72
2022-12-06T10:22:54.764Z,4.74
2022-12-06T10:24:00.095Z,4.74
2022-12-06T10:24:55.737Z,4.74
2022-12-06T10:25:54.715Z,4.74
2022-12-06T10:26:54.738Z,4.72
2022-12-06T10:27:54.648Z,4.72
2022-12-06T10:28:54.658Z,4.74
2022-12-06T10:29:54.617Z,4.74
2022-12-06T10:30:54.733Z,4.74
2022-12-06T10:31:54.720Z,4.72
2022-12-06T10:32:54.643Z,4.74
2022-12-06T10:33:55.576Z,4.72
2022-12-06T10:34:54.593Z,4.74
2022-12-06T10:35:54.583Z,4.72
2022-12-06T10:36:54.556Z,4.71
2022-12-06T10:37:54.516Z,4.72
2022-12-06T10:38:54.543Z,4.72
2022-12-06T10:39:54.513Z,4.71
2022-12-06T10:40:54.578Z,4.69
2022-12-06T10:41:54.531Z,4.69
2022-12-06T10:42:54.476Z,4.69
2022-12-06T10:43:54.455Z,4.69
2022-12-06T10:44:54.490Z,4.71
2022-12-06T10:45:54.712Z,4.71
2022-12-06T10:46:54.511Z,4.71
2022-12-06T10:48:02.875Z,4.71
2022-12-06T10:48:55.673Z,4.71
2022-12-06T10:49:54.442Z,4.72
2022-12-06T10:51:00.084Z,4.74
2022-12-06T10:51:54.780Z,4.71
2022-12-06T10:52:58.716Z,4.71
2022-12-06T10:55:05.529Z,4.71
2022-12-06T10:56:14.494Z,4.72
2022-12-06T10:58:42.624Z,4.72
2022-12-06T10:59:42.612Z,4.74
2022-12-06T11:00:42.694Z,4.74
2022-12-06T11:03:22.891Z,4.74
2022-12-06T11:05:47.090Z,4.77
2022-12-06T11:10:25.530Z,4.79
2022-12-06T11:11:25.484Z,4.79
2022-12-06T11:12:31.036Z,4.79
2022-12-06T11:13:26.548Z,4.79
2022-12-06T11:19:33.024Z,4.80
2022-12-06T11:22:06.146Z,4.84
2022-12-06T11:25:25.837Z,4.84
2022-12-06T11:26:35.056Z,4.84
2022-12-06T11:27:25.662Z,4.84
2022-12-06T11:28:25.799Z,4.86
2022-12-06T11:29:25.661Z,4.84
2022-12-06T11:31:49.083Z,4.86
2022-12-06T11:32:48.843Z,4.86
2022-12-06T11:33:49.730Z,4.86
2022-12-06T11:34:59.133Z,4.84
2022-12-06T11:35:49.760Z,4.84
2022-12-06T11:36:48.787Z,4.86
2022-12-06T11:37:48.652Z,4.83
2022-12-06T11:38:48.602Z,4.83
2022-12-06T11:39:48.690Z,4.83
2022-12-06T11:40:48.701Z,4.84
2022-12-06T11:42:01.573Z,4.84
2022-12-06T11:42:49.602Z,4.84
2022-12-06T11:43:48.739Z,4.87
2022-12-06T11:45:09.561Z,4.86
2022-12-06T11:45:48.514Z,4.86
2022-12-06T11:46:48.752Z,4.86
2022-12-06T11:47:48.623Z,4.87
2022-12-06T11:49:00.779Z,4.86
2022-12-06T11:49:48.505Z,4.88
2022-12-06T11:50:48.554Z,4.90
2022-12-06T11:51:49.394Z,4.88
2022-12-06T11:52:49.549Z,4.88
2022-12-06T11:55:51.014Z,4.88
2022-12-06T11:56:51.095Z,4.90
2022-12-06T11:57:51.037Z,4.91
2022-12-06T11:58:50.916Z,4.93
2022-12-06T11:59:50.897Z,4.94
2022-12-06T12:00:50.890Z,4.96
2022-12-06T12:01:50.900Z,5.01
2022-12-06T12:02:51.132Z,5.01
2022-12-06T12:03:51.024Z,5.01
2022-12-06T12:07:25.070Z,5.01
2022-12-06T12:11:01.195Z,5.04
2022-12-06T12:12:01.260Z,5.04
2022-12-06T12:19:51.299Z,5.06
2022-12-06T12:22:55.328Z,5.06
2022-12-06T12:23:56.359Z,5.09
2022-12-06T12:27:28.551Z,5.14
2022-12-06T12:28:24.646Z,5.14
2022-12-06T12:29:24.770Z,5.15
2022-12-06T12:30:24.568Z,5.15
2022-12-06T12:31:24.584Z,5.14
2022-12-06T12:32:25.578Z,5.14
2022-12-06T12:33:24.487Z,5.12
2022-12-06T12:34:24.505Z,5.15
2022-12-06T12:35:24.464Z,5.15
2022-12-06T12:36:24.423Z,5.19
2022-12-06T12:39:27.326Z,5.15
2022-12-06T12:40:28.085Z,5.19
2022-12-06T12:41:48.163Z,5.19
2022-12-06T12:42:27.133Z,5.17
2022-12-06T12:43:27.069Z,5.15
2022-12-06T12:44:42.416Z,5.15
2022-12-06T12:45:28.040Z,5.17
2022-12-06T12:46:27.037Z,5.14
2022-12-06T12:50:08.875Z,5.15
2022-12-06T12:51:11.856Z,5.15
2022-12-06T12:52:08.841Z,5.15
2022-12-06T12:53:08.788Z,5.17
2022-12-06T12:54:08.957Z,5.17
2022-12-06T12:55:08.739Z,5.15
2022-12-06T12:56:08.787Z,5.17
2022-12-06T12:57:21.040Z,5.17
2022-12-06T12:58:17.850Z,5.15
2022-12-06T12:59:08.774Z,5.19
2022-12-06T13:00:19.199Z,5.17
2022-12-06T13:01:09.815Z,5.20
2022-12-06T13:02:08.779Z,5.19
2022-12-06T13:04:30.315Z,5.19
2022-12-06T13:07:20.400Z,5.23
2022-12-06T13:08:20.425Z,5.24
2022-12-06T13:09:20.222Z,5.22
2022-12-06T13:10:21.215Z,5.20
2022-12-06T13:11:20.177Z,5.22
2022-12-06T13:12:20.184Z,5.19
2022-12-06T13:13:20.232Z,5.17
2022-12-06T13:14:20.103Z,5.17
2022-12-06T13:15:21.146Z,5.15
2022-12-06T13:16:20.192Z,5.14
2022-12-06T13:18:39.810Z,5.12
2022-12-06T13:19:39.870Z,5.12
2022-12-06T13:20:39.715Z,5.12
2022-12-06T13:23:17.621Z,5.14
2022-12-06T13:24:17.465Z,5.15
2022-12-06T13:25:17.433Z,5.20
2022-12-06T13:26:17.489Z,5.22
2022-12-06T13:27:17.482Z,5.23
2022-12-06T13:28:17.434Z,5.27
2022-12-06T13:31:31.898Z,5.33
2022-12-06T13:32:31.692Z,5.37
2022-12-06T13:33:32.571Z,5.40
2022-12-06T13:34:37.244Z,5.42
2022-12-06T13:36:41.856Z,5.42
2022-12-06T13:38:57.857Z,5.41
2022-12-06T13:39:59.034Z,5.41
2022-12-06T13:40:57.933Z,5.40
2022-12-06T13:59:19.849Z,5.48
2022-12-06T15:38:04.133Z,4.88
2022-12-06T15:42:34.646Z,4.86
2022-12-06T15:44:55.116Z,4.88
2022-12-06T16:00:05.100Z,4.80
2022-12-06T16:05:22.746Z,4.79
2022-12-06T16:06:22.737Z,4.79
2022-12-06T16:07:22.715Z,4.79
2022-12-06T16:08:22.779Z,4.77
2022-12-06T16:09:23.035Z,4.79
2022-12-06T16:10:29.265Z,4.79
2022-12-06T16:11:23.681Z,4.75
2022-12-06T16:12:22.627Z,4.79
2022-12-06T16:13:22.658Z,4.79
2022-12-06T16:14:22.632Z,4.79
2022-12-06T16:15:22.596Z,4.77
2022-12-06T16:16:22.826Z,4.77
2022-12-06T16:17:22.603Z,4.77
2022-12-06T16:18:22.605Z,4.75
2022-12-06T16:19:22.555Z,4.75
2022-12-06T16:20:22.541Z,4.75
2022-12-06T16:21:22.534Z,4.77
2022-12-06T16:22:22.521Z,4.75
2022-12-06T16:23:22.507Z,4.77
2022-12-06T16:24:22.464Z,4.77
2022-12-06T16:25:22.492Z,4.79
2022-12-06T16:26:22.484Z,4.79
2022-12-06T16:27:22.469Z,4.79
2022-12-06T16:28:22.424Z,4.83
2022-12-06T16:29:22.414Z,4.80
2022-12-06T16:30:22.397Z,4.83
2022-12-06T16:31:22.566Z,4.80
2022-12-06T16:32:22.400Z,4.79
2022-12-06T16:33:22.372Z,4.79
2022-12-06T16:34:22.368Z,4.77
2022-12-06T16:35:22.341Z,4.77